Time;durP1;ratioP1;P1;durP2;ratioP2;P2;SDS_P1;SDS_P2;PMS_P1;PMS_P2;Temp;Humidity;BMP_temperature;BMP_pressure;BME280_temperature;BME280_humidity;BME280_pressure;Samples;Min_cycle;Max_cycle;Signal;HPM_P1;HPM_P2
2021/09/27 00:06:55;;;;;;;16.78;6.68;;;;;;;12.27;100.00;101142.23;713973;1200;115748;-74
2021/09/27 00:21:57;;;;;;;8.18;3.25;;;;;;;12.15;100.00;101131.77;713634;1192;114223;-73
2021/09/27 00:36:59;;;;;;;10.45;4.55;;;;;;;11.89;100.00;101127.72;713648;1205;115502;-74
2021/09/27 00:52:03;;;;;;;16.73;5.77;;;;;;;11.42;100.00;101126.12;713569;1199;115866;-73
2021/09/27 01:07:19;;;;;;;12.45;5.95;;;;;;;11.28;100.00;101115.85;713653;1202;115096;-72
2021/09/27 01:22:59;;;;;;;6.93;3.48;;;;;;;11.39;100.00;101112.38;713845;1200;115561;-73
2021/09/27 01:38:26;;;;;;;12.78;5.45;;;;;;;11.20;100.00;101110.36;713623;1200;114085;-73
2021/09/27 01:53:40;;;;;;;11.98;5.75;;;;;;;11.14;100.00;101123.02;713615;1194;114761;-73
2021/09/27 02:09:06;;;;;;;9.40;3.30;;;;;;;11.12;100.00;101116.20;713787;1202;114246;-73
2021/09/27 02:25:02;;;;;;;9.33;3.85;;;;;;;10.94;100.00;101128.95;713833;1205;114729;-73
2021/09/27 02:40:19;;;;;;;9.27;4.40;;;;;;;10.74;100.00;101139.20;713612;1206;114424;-73
2021/09/27 02:55:31;;;;;;;7.13;2.87;;;;;;;10.70;100.00;101147.40;713608;1190;113914;-73
2021/09/27 03:10:51;;;;;;;6.00;2.83;;;;;;;10.59;100.00;101143.78;713730;1204;114851;-73
2021/09/27 03:26:10;;;;;;;6.30;3.08;;;;;;;10.63;100.00;101144.40;713728;1179;114275;-74
2021/09/27 03:41:21;;;;;;;9.20;4.63;;;;;;;10.64;100.00;101130.33;713669;1202;115324;-74
2021/09/27 03:56:32;;;;;;;274.03;87.78;;;;;;;10.46;100.00;101127.28;713616;1199;114534;-74
2021/09/27 04:11:59;;;;;;;51.90;15.58;;;;;;;10.47;100.00;101126.34;713858;1200;114835;-74
2021/09/27 04:27:20;;;;;;;12.70;7.25;;;;;;;10.41;100.00;101122.39;713872;1200;114328;-72
2021/09/27 04:42:59;;;;;;;14.78;5.95;;;;;;;10.13;100.00;101115.67;714174;1199;114791;-79
2021/09/27 04:58:35;;;;;;;18.00;6.47;;;;;;;10.04;100.00;101132.90;713746;1203;115158;-76
2021/09/27 05:13:46;;;;;;;17.10;6.50;;;;;;;10.20;100.00;101132.65;716332;1167;114360;-71
2021/09/27 05:29:12;;;;;;;8.08;3.98;;;;;;;10.44;100.00;101135.27;713541;1202;115055;-74
2021/09/27 05:44:50;;;;;;;6.43;3.50;;;;;;;10.81;100.00;101142.19;714224;1202;115403;-75
2021/09/27 06:00:02;;;;;;;6.60;4.10;;;;;;;11.24;100.00;101135.44;713513;1202;114761;-76
2021/09/27 06:15:07;;;;;;;6.93;3.93;;;;;;;11.79;100.00;101146.03;712830;1202;115419;-81
2021/09/27 06:30:18;;;;;;;6.43;3.87;;;;;;;12.98;100.00;101141.63;713809;1202;115648;-75
2021/09/27 06:45:20;;;;;;;7.55;3.15;;;;;;;13.97;100.00;101141.03;714070;1184;114187;-79
2021/09/27 07:00:23;;;;;;;7.85;3.50;;;;;;;15.18;100.00;101164.48;714900;1205;114159;-77
2021/09/27 07:15:25;;;;;;;7.10;3.00;;;;;;;15.79;100.00;101155.14;714699;1177;114619;-80
2021/09/27 07:30:28;;;;;;;8.70;3.15;;;;;;;16.62;98.20;101164.73;714068;1202;114148;-83
2021/09/27 07:45:34;;;;;;;12.03;3.98;;;;;;;17.46;95.92;101168.59;714318;1179;113692;-78
2021/09/27 08:00:37;;;;;;;6.78;4.28;;;;;;;18.10;91.58;101160.17;715111;1202;114456;-79
2021/09/27 08:15:43;;;;;;;8.70;3.75;;;;;;;18.86;88.24;101160.03;713678;1202;113876;-73
2021/09/27 08:30:49;;;;;;;14.23;3.88;;;;;;;19.42;86.02;101159.24;713198;1205;114678;-75
2021/09/27 08:45:52;;;;;;;6.30;2.67;;;;;;;20.39;82.69;101150.88;713543;1203;114160;-76
2021/09/27 10:07:45;;;;;;;7.40;1.95;;;;;;;21.88;66.62;101109.20;701918;1219;114514;-74
2021/09/27 10:22:55;;;;;;;5.53;1.83;;;;;;;22.63;64.63;101093.63;704581;1215;114137;-75
2021/09/27 10:38:21;;;;;;;5.45;2.70;;;;;;;22.89;62.70;101087.61;709911;1205;114457;-70
2021/09/27 10:53:36;;;;;;;5.60;2.00;;;;;;;22.89;59.03;101086.80;713634;1201;114248;-71
2021/09/27 11:08:45;;;;;;;6.55;3.08;;;;;;;23.12;59.65;101077.64;713678;1201;113805;-71
2021/09/27 11:24:04;;;;;;;2.80;1.95;;;;;;;23.75;57.26;101066.74;712861;1202;114702;-70
2021/09/27 11:39:08;;;;;;;4.43;2.68;;;;;;;23.55;56.20;101050.64;713423;1202;114162;-69
2021/09/27 11:54:30;;;;;;;5.88;3.13;;;;;;;23.87;55.11;101040.17;714292;1202;115571;-79
2021/09/27 12:09:48;;;;;;;6.90;4.70;;;;;;;23.75;53.71;101023.89;725333;1177;114033;-80
2021/09/27 12:24:51;;;;;;;3.07;1.33;;;;;;;24.07;53.19;101019.61;724461;1201;113547;-81
2021/09/27 12:39:54;;;;;;;4.63;2.33;;;;;;;23.84;51.75;100997.73;713160;1202;115037;-80
2021/09/27 12:54:58;;;;;;;8.85;1.80;;;;;;;24.62;50.30;100988.97;712727;1180;113827;-79
2021/09/27 13:10:06;;;;;;;10.55;2.23;;;;;;;24.46;49.11;100981.41;712669;1202;115022;-76
2021/09/27 13:25:19;;;;;;;3.15;1.40;;;;;;;25.47;49.47;100979.94;713744;1203;114222;-77
2021/09/27 13:40:36;;;;;;;6.05;2.38;;;;;;;32.70;44.08;100951.53;714888;1179;113862;-77
2021/09/27 13:55:38;;;;;;;9.13;2.43;;;;;;;34.50;40.64;100958.77;713191;1203;114553;-77
2021/09/27 14:10:47;;;;;;;8.15;1.70;;;;;;;34.49;39.94;100946.24;713512;1202;115123;-76
2021/09/27 14:25:50;;;;;;;10.45;2.70;;;;;;;35.45;39.80;100940.41;715596;1203;114096;-77
2021/09/27 14:40:55;;;;;;;12.38;2.85;;;;;;;35.04;39.86;100950.81;714033;1203;114040;-77
2021/09/27 14:55:59;;;;;;;5.80;2.00;;;;;;;29.04;42.98;100940.38;716954;1180;114927;-73
2021/09/27 15:11:04;;;;;;;34.87;25.10;;;;;;;25.58;47.04;100933.56;712945;1205;113905;-72
2021/09/27 15:26:11;;;;;;;17.50;10.77;;;;;;;23.95;50.29;100934.70;712785;1202;115663;-73
2021/09/27 15:41:30;;;;;;;21.83;10.60;;;;;;;23.06;52.52;100924.91;713334;1202;115055;-73
2021/09/27 15:56:33;;;;;;;23.38;10.85;;;;;;;21.05;55.24;100936.92;713405;1202;115853;-74
2021/09/27 16:11:35;;;;;;;13.33;5.87;;;;;;;19.92;57.64;100933.56;713489;1180;114041;-76
2021/09/27 16:26:40;;;;;;;13.45;6.45;;;;;;;19.04;60.28;100941.83;713273;1205;114034;-79
2021/09/27 16:41:46;;;;;;;17.98;6.95;;;;;;;18.40;62.08;100960.52;714335;1178;115207;-78
2021/09/27 16:57:09;;;;;;;27.85;15.40;;;;;;;17.75;64.22;100965.72;715821;1177;114868;-78
2021/09/27 17:12:12;;;;;;;63.83;30.90;;;;;;;17.21;65.82;100974.11;714313;1202;114303;-78
2021/09/27 17:27:15;;;;;;;12.33;8.33;;;;;;;16.72;68.15;100963.30;714907;1193;114232;-71
2021/09/27 17:42:18;;;;;;;11.18;6.33;;;;;;;16.28;69.44;100975.64;713738;1202;114503;-72
2021/09/27 17:57:21;;;;;;;10.43;6.40;;;;;;;15.90;70.70;100980.36;713901;1205;114774;-72
2021/09/27 18:12:24;;;;;;;7.53;5.03;;;;;;;15.59;71.56;100993.11;713463;1191;113987;-75
2021/09/27 18:27:28;;;;;;;11.83;6.13;;;;;;;15.30;72.94;100992.31;712862;1203;113866;-75
2021/09/27 18:42:30;;;;;;;10.83;5.53;;;;;;;14.93;74.66;101003.79;713435;1180;113909;-76
2021/09/27 18:57:33;;;;;;;9.60;4.20;;;;;;;14.55;76.65;101010.03;714619;1177;114081;-76
2021/09/27 19:12:36;;;;;;;11.27;5.10;;;;;;;14.29;78.08;101015.91;714083;1203;114438;-75
2021/09/27 19:27:39;;;;;;;8.85;4.45;;;;;;;14.06;80.07;101029.41;714094;1202;114116;-74
2021/09/27 19:42:43;;;;;;;6.13;3.57;;;;;;;13.78;81.53;101029.28;714142;1202;114799;-75
2021/09/27 19:57:46;;;;;;;5.98;3.15;;;;;;;13.58;83.33;101011.77;714034;1205;114252;-74
2021/09/27 20:12:52;;;;;;;5.65;3.48;;;;;;;13.47;83.49;101015.36;713626;1201;114999;-75
2021/09/27 20:28:05;;;;;;;4.80;3.00;;;;;;;13.28;85.21;101019.59;713277;1177;113856;-75
2021/09/27 20:43:07;;;;;;;4.30;2.60;;;;;;;13.13;85.20;101021.78;714824;1202;113857;-74
2021/09/27 20:58:10;;;;;;;8.05;3.73;;;;;;;13.08;85.87;101033.70;716450;1165;113821;-74
2021/09/27 21:13:13;;;;;;;5.13;3.50;;;;;;;12.95;86.75;101036.55;714280;1202;114458;-75
2021/09/27 21:28:16;;;;;;;7.83;4.60;;;;;;;12.61;88.46;101047.33;714229;1205;115459;-76
2021/09/27 21:43:18;;;;;;;5.40;3.87;;;;;;;12.58;89.08;101040.52;714864;1178;113800;-74
2021/09/27 21:58:21;;;;;;;6.53;4.30;;;;;;;12.37;90.71;101037.91;714727;1200;114178;-75
2021/09/27 22:13:23;;;;;;;6.50;4.53;;;;;;;12.23;90.99;101054.83;714321;1202;114635;-75
2021/09/27 22:28:25;;;;;;;5.33;3.90;;;;;;;12.12;91.89;101070.67;714545;1176;114042;-75
2021/09/27 22:43:27;;;;;;;5.63;3.45;;;;;;;11.95;92.74;101064.16;714552;1200;113702;-74
2021/09/27 22:58:29;;;;;;;6.40;3.90;;;;;;;11.90;93.07;101074.19;714031;1202;114742;-74
2021/09/27 23:13:33;;;;;;;11.35;4.20;;;;;;;11.94;92.83;101080.86;713925;1178;113802;-74
2021/09/27 23:28:35;;;;;;;6.08;3.83;;;;;;;11.71;94.06;101082.73;714399;1177;113766;-76
2021/09/27 23:43:37;;;;;;;7.08;3.80;;;;;;;11.54;95.72;101082.28;714166;1202;115159;-76
2021/09/27 23:58:39;;;;;;;6.15;4.30;;;;;;;11.40;96.81;101080.77;714395;1202;114564;-74
